Time;durP1;ratioP1;P1;durP2;ratioP2;P2;SDS_P1;SDS_P2;PMS_P1;PMS_P2;Temp;Humidity;BMP_temperature;BMP_pressure;BME280_temperature;BME280_humidity;BME280_pressure;Samples;Min_cycle;Max_cycle;Signal;HPM_P1;HPM_P2
2024/01/13 00:00:14;;;;;;;6.77;2.50;;;3.70;99.90;;;;;;5053181;28;20172;-72
2024/01/13 00:02:40;;;;;;;3.33;3.03;;;3.80;99.90;;;;;;5053054;28;20198;-75
2024/01/13 00:05:06;;;;;;;3.97;2.70;;;3.80;99.90;;;;;;5051483;28;20465;-72
2024/01/13 00:07:31;;;;;;;5.73;3.00;;;3.80;99.90;;;;;;5052912;28;20196;-74
2024/01/13 00:09:57;;;;;;;3.57;2.23;;;3.80;99.90;;;;;;5052957;28;20409;-71
2024/01/13 00:12:23;;;;;;;6.03;2.50;;;3.80;99.90;;;;;;5051685;28;20199;-71
2024/01/13 00:14:48;;;;;;;11.70;2.73;;;3.80;99.90;;;;;;5052225;28;20251;-74
2024/01/13 00:17:14;;;;;;;5.53;2.50;;;3.80;99.90;;;;;;5052789;28;20164;-71
2024/01/13 00:19:40;;;;;;;2.70;2.40;;;3.80;99.90;;;;;;5052962;28;20245;-75
2024/01/13 00:22:05;;;;;;;5.10;2.90;;;3.80;99.90;;;;;;5052876;28;20527;-72
2024/01/13 00:24:31;;;;;;;6.73;3.60;;;3.80;99.90;;;;;;5050549;28;20178;-78
2024/01/13 00:26:57;;;;;;;5.23;2.30;;;3.70;99.90;;;;;;5052862;28;20170;-72
2024/01/13 00:29:22;;;;;;;2.83;2.50;;;3.70;99.90;;;;;;5052838;28;20685;-75
2024/01/13 00:31:48;;;;;;;10.63;2.53;;;3.70;99.90;;;;;;5052640;28;20211;-75
2024/01/13 00:34:14;;;;;;;2.63;2.43;;;3.70;99.90;;;;;;5052808;28;20168;-75
2024/01/13 00:36:39;;;;;;;6.80;2.43;;;3.60;99.90;;;;;;5051948;28;20524;-75
2024/01/13 00:39:05;;;;;;;8.80;2.53;;;3.60;99.90;;;;;;5052771;28;20189;-74
2024/01/13 00:41:31;;;;;;;5.47;2.53;;;3.60;99.90;;;;;;5052805;28;20164;-75
2024/01/13 00:43:57;;;;;;;2.67;2.20;;;3.60;99.90;;;;;;5052173;28;20840;-70
2024/01/13 00:46:23;;;;;;;2.60;2.10;;;3.60;99.90;;;;;;5055571;28;20194;-72
2024/01/13 00:48:48;;;;;;;2.20;2.00;;;3.60;99.90;;;;;;5056530;28;20197;-73
2024/01/13 00:51:14;;;;;;;3.20;2.67;;;3.60;99.90;;;;;;5056494;28;20486;-72
2024/01/13 00:53:40;;;;;;;5.10;2.67;;;3.60;99.90;;;;;;5056519;28;20576;-75
2024/01/13 00:56:06;;;;;;;2.30;2.20;;;3.50;99.90;;;;;;5055463;28;20758;-75
2024/01/13 00:58:32;;;;;;;3.10;2.00;;;3.50;99.90;;;;;;5056252;28;20419;-75
2024/01/13 01:00:59;;;;;;;3.33;1.70;;;3.50;99.90;;;;;;5055592;28;20167;-71
2024/01/13 01:03:26;;;;;;;3.10;1.90;;;3.60;99.90;;;;;;5056297;28;20165;-74
2024/01/13 01:05:53;;;;;;;2.97;2.30;;;3.60;99.90;;;;;;5055299;28;20513;-75
2024/01/13 01:08:19;;;;;;;2.20;2.10;;;3.60;99.90;;;;;;5056034;28;20426;-75
2024/01/13 01:10:44;;;;;;;3.00;2.07;;;3.60;99.90;;;;;;5056229;28;20969;-75
2024/01/13 01:13:10;;;;;;;3.70;1.90;;;3.60;99.90;;;;;;5056129;28;20172;-70
2024/01/13 01:15:36;;;;;;;1.87;1.77;;;3.60;99.90;;;;;;5055177;28;20178;-75
2024/01/13 01:18:02;;;;;;;2.00;1.90;;;3.60;99.90;;;;;;5055661;28;20678;-74
2024/01/13 01:20:27;;;;;;;1.90;1.80;;;3.60;99.90;;;;;;5055487;28;20196;-72
2024/01/13 01:22:53;;;;;;;2.97;1.80;;;3.60;99.90;;;;;;5055917;28;20219;-74
2024/01/13 01:25:19;;;;;;;1.70;1.60;;;3.60;99.90;;;;;;5055142;28;20174;-73
2024/01/13 01:27:44;;;;;;;2.50;2.17;;;3.60;99.90;;;;;;5037825;28;20749;-73
2024/01/13 01:30:12;;;;;;;3.77;2.00;;;3.60;99.90;;;;;;5055725;28;20161;-75
2024/01/13 01:32:37;;;;;;;1.80;1.70;;;3.60;99.90;;;;;;5055548;28;20200;-75
2024/01/13 01:35:03;;;;;;;2.00;1.90;;;3.60;99.90;;;;;;5054400;28;20409;-75
2024/01/13 01:37:29;;;;;;;1.70;1.60;;;3.60;99.90;;;;;;5055321;28;20216;-74
2024/01/13 01:39:55;;;;;;;1.60;1.50;;;3.70;99.90;;;;;;5055664;28;20433;-75
2024/01/13 01:42:20;;;;;;;1.90;1.70;;;3.60;99.90;;;;;;5055568;28;20176;-76
2024/01/13 01:44:46;;;;;;;3.73;1.93;;;3.60;99.90;;;;;;5053533;28;20584;-75
2024/01/13 01:47:12;;;;;;;2.27;1.60;;;3.60;99.90;;;;;;5055520;28;20198;-72
2024/01/13 01:49:38;;;;;;;2.47;2.20;;;3.60;99.90;;;;;;5054313;28;20248;-74
2024/01/13 01:52:05;;;;;;;2.20;2.10;;;3.50;99.90;;;;;;5055375;28;20489;-75
2024/01/13 01:54:31;;;;;;;2.30;2.20;;;3.50;99.90;;;;;;5054225;28;20431;-79
2024/01/13 01:56:58;;;;;;;2.17;2.07;;;3.60;99.90;;;;;;5054633;28;20429;-73
2024/01/13 01:59:24;;;;;;;4.90;2.30;;;3.50;99.90;;;;;;5055114;28;20634;-73
2024/01/13 02:01:51;;;;;;;2.80;2.30;;;3.50;99.90;;;;;;5055193;28;20498;-71
2024/01/13 02:04:17;;;;;;;2.53;2.43;;;3.50;99.90;;;;;;5055159;28;20405;-74
2024/01/13 02:06:44;;;;;;;1.80;1.70;;;3.50;99.90;;;;;;5054049;28;20523;-75
2024/01/13 02:09:12;;;;;;;2.27;2.00;;;3.50;1.00;;;;;;5053738;28;20491;-75
2024/01/13 02:11:38;;;;;;;2.57;2.37;;;3.50;1.00;;;;;;5054970;28;20449;-75
2024/01/13 02:14:04;;;;;;;2.20;2.10;;;3.50;1.00;;;;;;5054893;28;20476;-72
2024/01/13 02:16:29;;;;;;;2.23;2.13;;;3.40;1.00;;;;;;5053360;28;20186;-72
2024/01/13 02:18:55;;;;;;;4.00;2.40;;;3.50;1.00;;;;;;5054709;28;20455;-72
2024/01/13 02:21:21;;;;;;;2.57;2.20;;;3.40;1.00;;;;;;5054960;28;20413;-75
2024/01/13 02:23:46;;;;;;;2.67;1.90;;;3.40;1.00;;;;;;5054790;28;20206;-71
2024/01/13 02:26:12;;;;;;;2.20;2.10;;;3.40;1.00;;;;;;5053891;28;20179;-70
2024/01/13 02:28:39;;;;;;;2.70;1.87;;;3.30;1.00;;;;;;5054449;28;20240;-76
2024/01/13 02:31:05;;;;;;;3.57;2.07;;;3.40;1.00;;;;;;5054510;28;20208;-73
2024/01/13 02:33:30;;;;;;;1.90;1.80;;;3.40;1.00;;;;;;5054680;28;20394;-72
2024/01/13 02:35:56;;;;;;;6.57;2.33;;;3.40;1.00;;;;;;5052959;28;20205;-73
2024/01/13 02:38:22;;;;;;;2.03;1.50;;;3.40;1.00;;;;;;5053183;28;20556;-76
2024/01/13 02:40:47;;;;;;;2.27;2.07;;;3.40;1.00;;;;;;5054412;28;20167;-72
2024/01/13 02:43:13;;;;;;;2.70;1.67;;;3.40;1.00;;;;;;5054266;28;20206;-73
2024/01/13 02:45:39;;;;;;;2.20;2.10;;;3.50;1.00;;;;;;5052222;28;20180;-75
2024/01/13 02:48:17;;;;;;;2.07;1.87;;;3.50;1.00;;;;;;5054298;28;20344;-75
2024/01/13 02:50:57;;;;;;;2.20;1.60;;;3.40;1.00;;;;;;5054165;28;20172;-73
2024/01/13 02:53:23;;;;;;;3.40;2.20;;;3.50;1.00;;;;;;5053879;28;20418;-75
2024/01/13 02:55:48;;;;;;;3.07;2.00;;;3.40;1.00;;;;;;5052597;28;20415;-75
2024/01/13 02:58:14;;;;;;;5.00;1.97;;;3.40;1.00;;;;;;5054106;28;20191;-76
2024/01/13 03:00:40;;;;;;;3.67;2.30;;;3.40;1.00;;;;;;5054157;28;20171;-71
2024/01/13 03:03:05;;;;;;;1.87;1.77;;;3.50;1.00;;;;;;5053968;28;20236;-71
2024/01/13 03:05:31;;;;;;;2.23;2.13;;;3.40;1.00;;;;;;5052981;28;20183;-75
2024/01/13 03:07:57;;;;;;;3.00;1.67;;;3.50;1.00;;;;;;5052123;28;20637;-76
2024/01/13 03:10:22;;;;;;;9.60;2.60;;;3.50;1.00;;;;;;5053872;28;20628;-72
2024/01/13 03:12:48;;;;;;;6.10;2.10;;;3.40;1.00;;;;;;5053853;28;20279;-72
2024/01/13 03:15:14;;;;;;;2.00;1.90;;;3.50;1.00;;;;;;5052329;28;20167;-72
2024/01/13 03:17:39;;;;;;;4.70;3.50;;;3.50;1.00;;;;;;5053632;28;20234;-74
2024/01/13 03:20:06;;;;;;;3.17;2.50;;;3.40;1.00;;;;;;5053708;28;20194;-73
2024/01/13 03:22:31;;;;;;;1.53;1.43;;;3.40;1.00;;;;;;5053703;28;20182;-74
2024/01/13 03:24:57;;;;;;;5.00;2.20;;;3.40;1.00;;;;;;5051525;28;20413;-72
2024/01/13 03:27:23;;;;;;;2.37;2.00;;;3.40;1.00;;;;;;5053494;28;20199;-76
2024/01/13 03:29:48;;;;;;;6.93;1.63;;;3.40;1.00;;;;;;5053586;28;20417;-72
2024/01/13 03:32:14;;;;;;;1.90;1.70;;;3.40;1.00;;;;;;5053315;28;20209;-73
2024/01/13 03:34:40;;;;;;;2.30;1.93;;;3.40;1.00;;;;;;5052126;28;20162;-73
2024/01/13 03:37:05;;;;;;;1.97;1.87;;;3.40;1.00;;;;;;5053476;28;20167;-72
2024/01/13 03:39:31;;;;;;;2.07;1.97;;;3.40;1.00;;;;;;5053235;28;20187;-75
2024/01/13 03:41:57;;;;;;;3.20;2.13;;;3.40;1.00;;;;;;5053587;28;20189;-73
2024/01/13 03:44:23;;;;;;;2.10;1.90;;;3.40;1.00;;;;;;5051939;28;20167;-78
2024/01/13 03:46:48;;;;;;;2.47;2.27;;;3.40;1.00;;;;;;5052767;28;20170;-76
2024/01/13 03:49:14;;;;;;;2.40;2.20;;;3.30;1.00;;;;;;5053201;28;20183;-72
2024/01/13 03:51:40;;;;;;;1.93;1.83;;;3.30;1.00;;;;;;5052411;28;20194;-77
2024/01/13 03:54:05;;;;;;;2.70;1.80;;;3.40;1.00;;;;;;5053191;28;20155;-75
2024/01/13 03:56:31;;;;;;;4.03;2.60;;;3.40;1.00;;;;;;5052397;28;20163;-72
2024/01/13 03:58:57;;;;;;;3.63;2.67;;;3.40;1.00;;;;;;5053101;28;20837;-75
2024/01/13 04:01:22;;;;;;;2.43;2.30;;;3.40;1.00;;;;;;5053128;28;20586;-72
2024/01/13 04:03:49;;;;;;;2.60;2.40;;;3.40;1.00;;;;;;5053050;28;20170;-76
2024/01/13 04:06:14;;;;;;;3.57;3.27;;;3.40;1.00;;;;;;5051688;28;20191;-77
2024/01/13 04:08:40;;;;;;;4.43;3.43;;;3.40;1.00;;;;;;5052658;28;20417;-75
2024/01/13 04:11:08;;;;;;;3.50;2.37;;;3.40;1.00;;;;;;5052921;28;20229;-77
2024/01/13 04:13:34;;;;;;;4.30;2.67;;;3.40;1.00;;;;;;5051697;28;20783;-69
2024/01/13 04:15:59;;;;;;;2.40;2.20;;;3.40;1.00;;;;;;5052093;28;20490;-75
2024/01/13 04:18:25;;;;;;;5.93;2.80;;;3.40;1.00;;;;;;5053599;28;20507;-72
2024/01/13 04:20:51;;;;;;;2.17;2.00;;;3.40;1.00;;;;;;5056057;28;20290;-75
2024/01/13 04:23:17;;;;;;;2.53;2.33;;;3.50;1.00;;;;;;5057001;28;20169;-76
2024/01/13 04:25:42;;;;;;;3.20;2.80;;;3.50;1.00;;;;;;5055372;28;20414;-76
2024/01/13 04:28:08;;;;;;;2.90;2.63;;;3.50;1.00;;;;;;5056700;28;20195;-73
2024/01/13 04:30:35;;;;;;;4.23;2.80;;;3.50;1.00;;;;;;5056850;28;20574;-71
2024/01/13 04:33:01;;;;;;;6.07;3.27;;;3.50;1.00;;;;;;5056891;28;20159;-75
2024/01/13 04:35:27;;;;;;;2.70;2.50;;;3.60;1.00;;;;;;5055901;28;20405;-73
2024/01/13 04:37:53;;;;;;;4.50;2.90;;;3.60;1.00;;;;;;5056538;28;20923;-77
2024/01/13 04:40:19;;;;;;;9.60;3.40;;;3.40;1.00;;;;;;5056815;28;20508;-76
2024/01/13 04:42:45;;;;;;;3.13;2.80;;;3.40;1.00;;;;;;5056731;28;20441;-72
2024/01/13 04:45:10;;;;;;;6.43;3.57;;;3.50;1.00;;;;;;5053856;28;20176;-72
2024/01/13 04:47:36;;;;;;;4.43;3.60;;;3.50;1.00;;;;;;5056607;28;20195;-74
2024/01/13 04:50:02;;;;;;;7.53;2.90;;;3.50;1.00;;;;;;5056452;28;20563;-72
2024/01/13 04:52:28;;;;;;;8.67;2.73;;;3.50;1.00;;;;;;5056459;28;20202;-71
2024/01/13 04:54:54;;;;;;;2.50;2.30;;;3.50;1.00;;;;;;5055638;28;20394;-75
2024/01/13 04:57:21;;;;;;;3.07;2.60;;;3.50;1.00;;;;;;5056516;28;20167;-72
2024/01/13 04:59:47;;;;;;;3.13;2.70;;;3.40;1.00;;;;;;5056422;28;20635;-73
2024/01/13 05:02:13;;;;;;;3.60;2.67;;;3.40;1.00;;;;;;5055602;28;20393;-73
2024/01/13 05:04:39;;;;;;;3.97;2.47;;;3.40;1.00;;;;;;5055374;28;20425;-72
2024/01/13 05:07:05;;;;;;;6.23;3.20;;;3.50;1.00;;;;;;5056254;28;20179;-72
2024/01/13 05:09:31;;;;;;;14.37;3.40;;;3.50;1.00;;;;;;5056192;28;20430;-76
2024/01/13 05:11:56;;;;;;;8.27;3.50;;;3.50;1.00;;;;;;5056010;28;20453;-76
2024/01/13 05:14:22;;;;;;;5.20;2.60;;;3.50;1.00;;;;;;5056080;28;20170;-72
2024/01/13 05:16:48;;;;;;;7.93;3.37;;;3.40;1.00;;;;;;5055354;28;20167;-77
2024/01/13 05:19:14;;;;;;;9.17;3.47;;;3.40;1.00;;;;;;5055224;28;20207;-76
2024/01/13 05:21:39;;;;;;;4.13;3.20;;;3.40;1.00;;;;;;5055962;28;20733;-72
2024/01/13 05:24:05;;;;;;;4.97;2.80;;;3.40;1.00;;;;;;5055862;28;20175;-73
2024/01/13 05:26:31;;;;;;;6.93;3.20;;;3.40;1.00;;;;;;5055004;28;20524;-76
2024/01/13 05:28:56;;;;;;;3.20;2.97;;;3.40;1.00;;;;;;5055390;28;20234;-75
2024/01/13 05:31:22;;;;;;;4.57;2.60;;;3.50;1.00;;;;;;5055509;28;20195;-75
2024/01/13 05:33:48;;;;;;;8.43;3.40;;;3.50;1.00;;;;;;5055698;28;20242;-72
2024/01/13 05:36:15;;;;;;;4.50;2.90;;;3.50;1.00;;;;;;5054671;28;20393;-72
2024/01/13 05:38:41;;;;;;;5.47;3.47;;;3.50;1.00;;;;;;5055193;28;20261;-76
2024/01/13 05:41:09;;;;;;;6.40;3.30;;;3.60;1.00;;;;;;5055341;28;20887;-73
2024/01/13 05:43:35;;;;;;;8.10;3.63;;;3.50;1.00;;;;;;5055571;28;20524;-72
2024/01/13 05:46:01;;;;;;;2.73;2.53;;;3.40;1.00;;;;;;5054721;28;20398;-76
2024/01/13 05:48:27;;;;;;;7.03;2.70;;;3.40;1.00;;;;;;5054051;28;20195;-74
2024/01/13 05:50:52;;;;;;;8.73;3.57;;;3.40;1.00;;;;;;5055343;28;20642;-76
2024/01/13 05:53:18;;;;;;;11.97;3.23;;;3.40;1.00;;;;;;5055457;28;20206;-76
2024/01/13 05:55:44;;;;;;;5.20;3.00;;;3.40;1.00;;;;;;5054209;28;20157;-72
2024/01/13 05:58:10;;;;;;;10.67;4.00;;;3.40;1.00;;;;;;5054828;28;20781;-76
2024/01/13 06:00:35;;;;;;;9.53;3.13;;;3.40;1.00;;;;;;5055211;28;20164;-73
2024/01/13 06:03:02;;;;;;;4.30;2.67;;;3.50;1.00;;;;;;5055165;28;20389;-72
2024/01/13 06:05:28;;;;;;;2.90;2.70;;;3.50;1.00;;;;;;5054186;28;20186;-72
2024/01/13 06:07:54;;;;;;;13.80;3.90;;;3.40;1.00;;;;;;5055059;28;20460;-75
2024/01/13 06:10:20;;;;;;;12.20;4.00;;;3.40;1.00;;;;;;5055133;28;20167;-72
2024/01/13 06:12:46;;;;;;;6.30;3.30;;;3.40;1.00;;;;;;5054634;28;20526;-73
2024/01/13 06:15:11;;;;;;;4.87;2.80;;;3.40;1.00;;;;;;5053683;28;20237;-75
2024/01/13 06:17:38;;;;;;;9.30;3.80;;;3.30;1.00;;;;;;5054777;28;20211;-74
2024/01/13 06:20:04;;;;;;;12.20;2.67;;;3.30;1.00;;;;;;5055005;28;20171;-76
2024/01/13 06:22:30;;;;;;;3.90;3.60;;;3.30;1.00;;;;;;5054819;28;20476;-73
2024/01/13 06:24:55;;;;;;;9.80;3.17;;;3.40;1.00;;;;;;5052911;28;20505;-74
2024/01/13 06:27:21;;;;;;;4.60;2.80;;;3.30;1.00;;;;;;5054785;28;20225;-75
2024/01/13 06:29:46;;;;;;;3.83;2.90;;;3.40;1.00;;;;;;5054024;28;20167;-75
2024/01/13 06:32:12;;;;;;;10.70;3.10;;;3.40;1.00;;;;;;5054529;28;20270;-73
2024/01/13 06:34:38;;;;;;;6.20;2.83;;;3.40;1.00;;;;;;5053617;28;20508;-77
2024/01/13 06:37:04;;;;;;;4.97;3.03;;;3.40;1.00;;;;;;5054542;28;20172;-73
2024/01/13 06:39:30;;;;;;;4.37;3.60;;;3.40;1.00;;;;;;5054611;28;20418;-72
2024/01/13 06:41:56;;;;;;;7.90;3.47;;;3.40;1.00;;;;;;5053613;28;20209;-72
2024/01/13 06:44:21;;;;;;;4.93;3.30;;;3.40;1.00;;;;;;5054528;28;20890;-76
2024/01/13 06:46:47;;;;;;;8.97;2.93;;;3.50;1.00;;;;;;5053387;28;20409;-78
2024/01/13 06:49:13;;;;;;;3.40;3.10;;;3.40;1.00;;;;;;5053766;28;20211;-73
2024/01/13 06:51:38;;;;;;;2.80;2.20;;;3.40;1.00;;;;;;5054139;28;20672;-76
2024/01/13 06:54:05;;;;;;;6.47;3.53;;;3.50;1.00;;;;;;5054220;28;20170;-72
2024/01/13 06:56:31;;;;;;;4.50;2.20;;;3.50;1.00;;;;;;5053329;28;20288;-75
2024/01/13 06:58:56;;;;;;;2.30;2.10;;;3.50;1.00;;;;;;5053963;28;20504;-73
2024/01/13 07:01:22;;;;;;;2.60;2.40;;;3.50;1.00;;;;;;5052824;28;20539;-73
2024/01/13 07:03:48;;;;;;;3.10;2.20;;;3.50;1.00;;;;;;5054068;28;20651;-77
2024/01/13 07:06:13;;;;;;;2.93;2.73;;;3.50;1.00;;;;;;5053024;28;20559;-76
2024/01/13 07:08:43;;;;;;;5.10;2.50;;;3.60;1.00;;;;;;5053744;28;20187;-76
2024/01/13 07:11:13;;;;;;;4.70;2.70;;;3.60;1.00;;;;;;5052929;28;20191;-76
2024/01/13 07:13:41;;;;;;;3.83;2.90;;;3.60;1.00;;;;;;5073587;28;20424;-72
2024/01/13 07:16:06;;;;;;;2.70;2.50;;;3.60;1.00;;;;;;5072804;28;20404;-73
2024/01/13 07:18:32;;;;;;;4.03;3.50;;;3.60;1.00;;;;;;5073755;28;20412;-72
2024/01/13 07:20:58;;;;;;;2.37;2.17;;;3.60;1.00;;;;;;5073672;28;20635;-72
2024/01/13 07:23:23;;;;;;;3.93;2.33;;;3.60;1.00;;;;;;5073612;28;20198;-73
2024/01/13 07:25:49;;;;;;;2.40;2.30;;;3.70;1.00;;;;;;5072470;28;20174;-75
2024/01/13 07:28:15;;;;;;;2.87;2.67;;;3.60;1.00;;;;;;5073110;28;20182;-76
2024/01/13 07:30:40;;;;;;;4.70;3.30;;;3.70;1.00;;;;;;5073402;28;20177;-75
2024/01/13 07:33:06;;;;;;;2.60;2.13;;;3.70;1.00;;;;;;5072185;28;20254;-72
2024/01/13 07:35:34;;;;;;;4.40;2.80;;;3.60;1.00;;;;;;5072690;28;20166;-73
2024/01/13 07:38:01;;;;;;;4.23;2.80;;;3.70;1.00;;;;;;5073458;28;20590;-72
2024/01/13 07:40:26;;;;;;;5.17;2.70;;;3.80;1.00;;;;;;5073459;28;20405;-73
2024/01/13 07:42:52;;;;;;;4.60;2.77;;;3.70;1.00;;;;;;5073434;28;20762;-73
2024/01/13 07:45:18;;;;;;;6.50;3.00;;;3.80;1.00;;;;;;5071628;28;20173;-76
2024/01/13 07:47:44;;;;;;;7.90;3.30;;;3.80;1.00;;;;;;5073268;28;20525;-73
2024/01/13 07:50:09;;;;;;;3.00;2.80;;;3.70;1.00;;;;;;5073374;28;20168;-73
2024/01/13 07:52:35;;;;;;;3.03;2.80;;;3.70;1.00;;;;;;5072982;28;20642;-73
2024/01/13 07:55:01;;;;;;;4.43;3.87;;;3.70;1.00;;;;;;5072431;28;20295;-76
2024/01/13 07:57:29;;;;;;;2.70;2.50;;;3.70;1.00;;;;;;5073102;28;20162;-75
2024/01/13 07:59:55;;;;;;;4.23;3.17;;;3.70;1.00;;;;;;5073153;28;20180;-72
2024/01/13 08:02:20;;;;;;;4.47;2.87;;;3.70;1.00;;;;;;5073279;28;20479;-75
2024/01/13 08:04:46;;;;;;;13.33;3.80;;;3.80;1.00;;;;;;5071637;28;20961;-73
2024/01/13 08:07:12;;;;;;;3.40;2.40;;;3.80;1.00;;;;;;5073019;28;20190;-78
2024/01/13 08:09:38;;;;;;;6.53;2.97;;;3.80;1.00;;;;;;5073036;28;20178;-78
2024/01/13 08:12:05;;;;;;;3.13;2.90;;;3.80;1.00;;;;;;5071786;28;20452;-76
2024/01/13 08:14:30;;;;;;;3.67;3.37;;;3.80;1.00;;;;;;5072511;28;20735;-78
2024/01/13 08:16:56;;;;;;;7.00;3.47;;;3.80;1.00;;;;;;5072780;28;20401;-72
2024/01/13 08:19:22;;;;;;;5.17;3.47;;;3.90;1.00;;;;;;5072942;28;20218;-76
2024/01/13 08:21:50;;;;;;;5.37;3.00;;;3.90;1.00;;;;;;5073005;28;20168;-72
2024/01/13 08:24:16;;;;;;;3.80;3.50;;;3.90;1.00;;;;;;5072268;28;20401;-74
2024/01/13 08:26:42;;;;;;;3.93;3.30;;;3.90;1.00;;;;;;5072008;28;20416;-75
2024/01/13 08:29:08;;;;;;;3.10;2.90;;;3.90;1.00;;;;;;5072787;28;20458;-76
2024/01/13 08:31:34;;;;;;;7.40;3.90;;;3.90;1.00;;;;;;5071485;28;20535;-72
2024/01/13 08:34:00;;;;;;;3.93;2.90;;;3.90;1.00;;;;;;5072890;28;21007;-76
2024/01/13 08:36:25;;;;;;;10.27;3.60;;;3.90;1.00;;;;;;5072063;28;20725;-72
2024/01/13 08:38:51;;;;;;;4.60;4.20;;;3.90;1.00;;;;;;5072761;28;20188;-79
2024/01/13 08:41:17;;;;;;;3.50;3.20;;;4.00;1.00;;;;;;5072159;28;20508;-72
2024/01/13 08:43:42;;;;;;;6.37;3.90;;;4.00;1.00;;;;;;5072635;28;20589;-73
2024/01/13 08:46:11;;;;;;;5.77;4.03;;;4.00;1.00;;;;;;5071938;28;20166;-73
2024/01/13 08:48:37;;;;;;;7.83;4.20;;;4.00;1.00;;;;;;5072991;28;20210;-72
2024/01/13 08:51:03;;;;;;;5.80;4.73;;;3.90;1.00;;;;;;5072769;28;20505;-72
2024/01/13 08:53:28;;;;;;;5.83;4.30;;;4.00;1.00;;;;;;5071385;28;20408;-77
2024/01/13 08:55:54;;;;;;;7.80;3.90;;;4.00;1.00;;;;;;5071643;28;20486;-78
2024/01/13 08:58:20;;;;;;;8.67;3.77;;;4.10;1.00;;;;;;5072701;28;20245;-78
2024/01/13 09:00:46;;;;;;;5.60;3.93;;;4.00;1.00;;;;;;5071964;28;20167;-77
2024/01/13 09:03:11;;;;;;;8.20;3.73;;;4.10;1.00;;;;;;5072735;28;20167;-76
2024/01/13 09:05:37;;;;;;;6.30;3.80;;;4.10;1.00;;;;;;5074081;28;20202;-75
2024/01/13 09:08:03;;;;;;;13.73;5.33;;;4.10;1.00;;;;;;5076113;28;20187;-76
2024/01/13 09:10:28;;;;;;;5.13;4.00;;;4.20;1.00;;;;;;5076155;28;20172;-76
2024/01/13 09:12:55;;;;;;;5.90;3.90;;;4.20;1.00;;;;;;5076054;28;20235;-72
2024/01/13 09:15:21;;;;;;;4.33;3.90;;;4.10;1.00;;;;;;5075335;28;20156;-75
2024/01/13 09:17:47;;;;;;;11.90;3.67;;;4.10;1.00;;;;;;5075705;28;20471;-73
2024/01/13 09:20:12;;;;;;;7.57;4.50;;;4.20;1.00;;;;;;5075466;28;20535;-77
2024/01/13 09:22:39;;;;;;;7.33;4.20;;;4.20;1.00;;;;;;5076012;28;20249;-76
2024/01/13 09:25:05;;;;;;;8.43;5.00;;;4.20;1.00;;;;;;5075115;28;20254;-77
2024/01/13 09:27:31;;;;;;;6.97;4.93;;;4.20;1.00;;;;;;5074516;28;20506;-76
2024/01/13 09:29:57;;;;;;;7.87;4.83;;;4.20;1.00;;;;;;5075769;28;20434;-78
2024/01/13 09:32:23;;;;;;;11.33;4.40;;;4.20;1.00;;;;;;5075717;28;20212;-71
2024/01/13 09:34:49;;;;;;;15.80;4.97;;;4.20;1.00;;;;;;5074971;28;21311;-71
2024/01/13 09:37:15;;;;;;;9.30;3.87;;;4.20;1.00;;;;;;5075689;28;20209;-77
2024/01/13 09:39:41;;;;;;;5.20;4.70;;;4.30;1.00;;;;;;5074958;28;20182;-76
2024/01/13 09:42:06;;;;;;;14.60;4.50;;;4.30;1.00;;;;;;5075488;28;20401;-77
2024/01/13 09:44:33;;;;;;;8.03;4.60;;;4.30;1.00;;;;;;5074646;28;20402;-77
2024/01/13 09:47:01;;;;;;;4.87;4.43;;;4.20;1.00;;;;;;5075634;28;20190;-72
2024/01/13 09:49:30;;;;;;;6.80;4.43;;;4.30;1.00;;;;;;5075591;28;20414;-75
2024/01/13 09:51:57;;;;;;;6.10;4.20;;;4.30;1.00;;;;;;5075361;28;21031;-73
2024/01/13 09:54:30;;;;;;;4.80;3.83;;;4.30;1.00;;;;;;5074944;28;20490;-77
2024/01/13 09:56:57;;;;;;;5.10;3.77;;;4.40;1.00;;;;;;5074604;28;20426;-77
2024/01/13 09:59:25;;;;;;;7.13;4.43;;;4.40;1.00;;;;;;5075206;28;20914;-75
2024/01/13 10:01:55;;;;;;;14.63;4.63;;;4.50;1.00;;;;;;5075312;28;20898;-74
2024/01/13 10:04:20;;;;;;;9.70;4.47;;;4.50;1.00;;;;;;5075117;28;20891;-71
2024/01/13 10:06:47;;;;;;;14.13;3.57;;;4.40;1.00;;;;;;5074192;28;20425;-78
2024/01/13 10:09:13;;;;;;;7.00;3.43;;;4.50;1.00;;;;;;5074994;28;20461;-77
2024/01/13 10:11:39;;;;;;;7.10;3.67;;;4.50;1.00;;;;;;5073773;28;20489;-78
2024/01/13 10:14:12;;;;;;;6.83;4.00;;;4.50;1.00;;;;;;5074362;28;20472;-80
2024/01/13 10:16:38;;;;;;;9.53;3.93;;;4.40;1.00;;;;;;5074025;28;20396;-78
2024/01/13 10:19:05;;;;;;;3.30;3.10;;;4.40;1.00;;;;;;5074930;28;20414;-77
2024/01/13 10:21:32;;;;;;;4.20;3.80;;;4.50;1.00;;;;;;5074803;28;20181;-77
2024/01/13 10:24:00;;;;;;;4.60;3.57;;;4.50;1.00;;;;;;5074851;28;20459;-73
2024/01/13 10:26:28;;;;;;;6.17;3.63;;;4.50;1.00;;;;;;5073889;28;20432;-71
2024/01/13 10:28:55;;;;;;;4.47;4.07;;;4.50;1.00;;;;;;5074638;28;20784;-72
2024/01/13 10:31:21;;;;;;;4.83;4.00;;;4.60;1.00;;;;;;5074631;28;20476;-72
2024/01/13 10:33:48;;;;;;;3.97;3.30;;;4.60;1.00;;;;;;5073985;28;20433;-73
2024/01/13 10:36:24;;;;;;;4.27;3.87;;;4.60;1.00;;;;;;5073641;28;20396;-72
2024/01/13 10:38:51;;;;;;;9.33;4.47;;;4.60;1.00;;;;;;5074416;28;20448;-75
2024/01/13 10:41:21;;;;;;;4.20;3.57;;;4.50;1.00;;;;;;5074548;28;20405;-78
2024/01/13 10:43:54;;;;;;;7.47;4.10;;;4.60;1.00;;;;;;5074529;28;20865;-73
2024/01/13 10:46:26;;;;;;;12.00;3.63;;;4.60;1.00;;;;;;5073936;28;20437;-78
2024/01/13 10:48:59;;;;;;;3.50;3.13;;;4.60;1.00;;;;;;5072945;28;20451;-77
2024/01/13 10:51:39;;;;;;;3.07;2.97;;;4.60;1.00;;;;;;5073564;28;20536;-72
2024/01/13 10:54:06;;;;;;;4.10;3.70;;;4.60;1.00;;;;;;5074237;28;20749;-73
2024/01/13 10:56:35;;;;;;;8.27;2.93;;;4.70;1.00;;;;;;5073256;28;20538;-76
2024/01/13 10:59:02;;;;;;;3.67;3.37;;;4.70;1.00;;;;;;5073912;28;20475;-74
2024/01/13 11:01:28;;;;;;;4.20;3.30;;;4.70;1.00;;;;;;5074130;28;20408;-70
2024/01/13 11:03:56;;;;;;;6.83;3.67;;;4.70;1.00;;;;;;5074107;28;20405;-71
2024/01/13 11:06:22;;;;;;;5.43;2.80;;;4.80;1.00;;;;;;5073058;28;20182;-78
2024/01/13 11:08:48;;;;;;;3.87;3.50;;;4.80;1.00;;;;;;5073847;28;20430;-72
2024/01/13 11:11:21;;;;;;;5.60;3.40;;;4.80;1.00;;;;;;5073136;28;20191;-75
2024/01/13 11:13:57;;;;;;;6.70;3.80;;;4.80;1.00;;;;;;5073802;28;20403;-74
2024/01/13 11:16:28;;;;;;;6.47;2.90;;;5.00;1.00;;;;;;5072707;28;20923;-73
2024/01/13 11:18:54;;;;;;;3.80;3.10;;;5.00;1.00;;;;;;5059045;28;20503;-76
2024/01/13 11:21:28;;;;;;;3.03;2.83;;;5.00;1.00;;;;;;5053747;28;20809;-71
2024/01/13 11:23:54;;;;;;;1.97;1.77;;;5.00;1.00;;;;;;5053601;28;20395;-74
2024/01/13 11:26:32;;;;;;;2.87;2.53;;;5.00;1.00;;;;;;5051469;28;20432;-72
2024/01/13 11:28:58;;;;;;;3.10;2.53;;;5.00;1.00;;;;;;5051084;28;20966;-72
2024/01/13 11:31:41;;;;;;;8.50;2.70;;;5.10;1.00;;;;;;5052242;28;20448;-74
2024/01/13 11:34:08;;;;;;;2.97;2.77;;;5.10;1.00;;;;;;5053588;28;20164;-73
2024/01/13 11:36:35;;;;;;;2.40;2.20;;;5.10;1.00;;;;;;5052483;28;20401;-70
2024/01/13 11:39:03;;;;;;;2.70;2.60;;;5.10;1.00;;;;;;5053297;28;20910;-72
2024/01/13 11:41:41;;;;;;;2.53;2.33;;;5.10;1.00;;;;;;5052166;28;20459;-71
2024/01/13 11:44:09;;;;;;;2.70;2.50;;;5.20;1.00;;;;;;5052388;28;20425;-71
2024/01/13 11:46:39;;;;;;;2.53;2.33;;;5.30;1.00;;;;;;5052059;28;20793;-77
2024/01/13 11:49:05;;;;;;;2.60;2.50;;;5.30;1.00;;;;;;5051558;28;20474;-72
2024/01/13 11:51:57;;;;;;;3.00;2.73;;;5.20;1.00;;;;;;5053211;28;20507;-75
2024/01/13 11:54:24;;;;;;;2.57;2.33;;;5.30;1.00;;;;;;5053241;28;20416;-78
2024/01/13 11:56:50;;;;;;;3.00;2.63;;;5.30;1.00;;;;;;5052466;28;20404;-75
2024/01/13 11:59:16;;;;;;;3.93;2.57;;;5.30;1.00;;;;;;5051677;28;20417;-75
2024/01/13 12:01:44;;;;;;;3.67;2.20;;;5.40;1.00;;;;;;5053199;28;20474;-74
2024/01/13 12:04:10;;;;;;;4.63;2.27;;;5.40;1.00;;;;;;5052519;28;20483;-74
2024/01/13 12:06:35;;;;;;;4.03;1.90;;;5.40;1.00;;;;;;5052159;28;20504;-74
2024/01/13 12:09:01;;;;;;;6.60;2.77;;;5.30;1.00;;;;;;5051671;28;20675;-71
2024/01/13 12:11:27;;;;;;;3.00;2.10;;;5.40;1.00;;;;;;5052899;28;20246;-72
2024/01/13 12:13:53;;;;;;;3.20;2.90;;;5.40;1.00;;;;;;5053091;28;20170;-71
2024/01/13 12:16:19;;;;;;;3.30;1.80;;;5.40;1.00;;;;;;5052265;28;20896;-74
2024/01/13 12:18:48;;;;;;;2.30;2.20;;;5.40;1.00;;;;;;5052989;28;20265;-74
2024/01/13 12:21:14;;;;;;;2.40;2.00;;;5.40;1.00;;;;;;5052848;28;20421;-74
2024/01/13 12:23:43;;;;;;;4.23;2.50;;;5.40;1.00;;;;;;5052380;28;21027;-75
2024/01/13 12:26:09;;;;;;;2.87;2.30;;;5.40;1.00;;;;;;5048391;28;20888;-73
2024/01/13 12:28:34;;;;;;;1.80;1.70;;;5.50;1.00;;;;;;5052791;28;20542;-71
2024/01/13 12:31:03;;;;;;;2.30;1.77;;;5.50;1.00;;;;;;5052913;28;20641;-73
2024/01/13 12:33:31;;;;;;;2.90;2.43;;;5.50;1.00;;;;;;5051589;28;20219;-70
2024/01/13 12:36:01;;;;;;;3.00;2.33;;;5.50;1.00;;;;;;5050711;28;20936;-73
2024/01/13 12:38:30;;;;;;;6.10;2.37;;;5.50;1.00;;;;;;5052067;28;20425;-73
2024/01/13 12:40:57;;;;;;;2.90;2.60;;;5.50;1.00;;;;;;5037832;28;20411;-69
2024/01/13 12:43:26;;;;;;;11.50;2.53;;;5.50;1.00;;;;;;5055490;28;20433;-69
2024/01/13 12:45:53;;;;;;;5.33;2.60;;;5.50;1.00;;;;;;5055778;28;20402;-70
2024/01/13 12:48:22;;;;;;;5.20;2.30;;;5.50;1.00;;;;;;5056865;28;20427;-69
2024/01/13 12:50:47;;;;;;;9.13;3.27;;;5.50;1.00;;;;;;5056745;28;20501;-69
2024/01/13 12:53:13;;;;;;;5.63;2.23;;;5.50;1.00;;;;;;5056516;28;20480;-70
2024/01/13 12:55:39;;;;;;;5.27;3.27;;;5.40;1.00;;;;;;5055384;28;20171;-72
2024/01/13 12:58:05;;;;;;;7.57;2.57;;;5.50;1.00;;;;;;5054469;28;20551;-73
2024/01/13 13:00:34;;;;;;;5.43;2.43;;;5.40;1.00;;;;;;5056446;28;20405;-69